sensor_id;sensor_type;location;lat;lon;timestamp;P1;durP1;ratioP1;P2;durP2;ratioP2
75894;SDS011;64573;50.328;15.014;2024-02-04T00:51:26;1.42;;;0.95;;
75894;SDS011;64573;50.328;15.014;2024-02-04T00:56:19;1.75;;;1.15;;
75894;SDS011;64573;50.328;15.014;2024-02-04T00:58:44;1.77;;;1.23;;
75894;SDS011;64573;50.328;15.014;2024-02-04T01:03:45;1.38;;;1.20;;
75894;SDS011;64573;50.328;15.014;2024-02-04T01:11:21;2.10;;;1.30;;
75894;SDS011;64573;50.328;15.014;2024-02-04T01:13:46;1.80;;;1.20;;
75894;SDS011;64573;50.328;15.014;2024-02-04T01:23:57;2.72;;;1.30;;
75894;SDS011;64573;50.328;15.014;2024-02-04T01:39:19;2.35;;;1.63;;
75894;SDS011;64573;50.328;15.014;2024-02-04T01:41:44;2.03;;;1.35;;
75894;SDS011;64573;50.328;15.014;2024-02-04T01:44:10;1.73;;;1.45;;
75894;SDS011;64573;50.328;15.014;2024-02-04T01:46:36;2.60;;;1.65;;
75894;SDS011;64573;50.328;15.014;2024-02-04T02:20:06;1.48;;;1.08;;
75894;SDS011;64573;50.328;15.014;2024-02-04T03:03:50;1.35;;;1.20;;
75894;SDS011;64573;50.328;15.014;2024-02-04T03:06:15;1.98;;;1.58;;
75894;SDS011;64573;50.328;15.014;2024-02-04T03:08:40;2.33;;;1.50;;
75894;SDS011;64573;50.328;15.014;2024-02-04T03:11:06;2.90;;;1.13;;
75894;SDS011;64573;50.328;15.014;2024-02-04T03:13:31;1.83;;;1.42;;
75894;SDS011;64573;50.328;15.014;2024-02-04T03:15:56;1.80;;;1.10;;
75894;SDS011;64573;50.328;15.014;2024-02-04T03:28:42;1.35;;;0.90;;
75894;SDS011;64573;50.328;15.014;2024-02-04T03:31:08;0.93;;;0.82;;
75894;SDS011;64573;50.328;15.014;2024-02-04T03:33:33;1.30;;;1.17;;
75894;SDS011;64573;50.328;15.014;2024-02-04T03:35:58;4.18;;;1.30;;
75894;SDS011;64573;50.328;15.014;2024-02-04T03:38:24;1.20;;;1.00;;
75894;SDS011;64573;50.328;15.014;2024-02-04T03:40:49;5.82;;;1.45;;
75894;SDS011;64573;50.328;15.014;2024-02-04T03:43:15;4.80;;;1.27;;
75894;SDS011;64573;50.328;15.014;2024-02-04T03:45:40;1.92;;;1.20;;
75894;SDS011;64573;50.328;15.014;2024-02-04T04:26:47;2.67;;;1.52;;
75894;SDS011;64573;50.328;15.014;2024-02-04T04:29:12;1.90;;;1.38;;
75894;SDS011;64573;50.328;15.014;2024-02-04T04:31:38;8.38;;;1.70;;
75894;SDS011;64573;50.328;15.014;2024-02-04T04:34:03;6.13;;;1.42;;
75894;SDS011;64573;50.328;15.014;2024-02-04T04:36:28;2.67;;;1.23;;
75894;SDS011;64573;50.328;15.014;2024-02-04T05:23:55;0.88;;;0.60;;
75894;SDS011;64573;50.328;15.014;2024-02-04T05:44:27;1.27;;;0.70;;
75894;SDS011;64573;50.328;15.014;2024-02-04T05:49:27;1.10;;;0.80;;
75894;SDS011;64573;50.328;15.014;2024-02-04T05:51:53;0.60;;;0.60;;
75894;SDS011;64573;50.328;15.014;2024-02-04T06:02:04;1.13;;;0.75;;
75894;SDS011;64573;50.328;15.014;2024-02-04T06:37:43;0.70;;;0.63;;
75894;SDS011;64573;50.328;15.014;2024-02-04T07:00:50;1.40;;;0.80;;
75894;SDS011;64573;50.328;15.014;2024-02-04T07:54:51;1.83;;;0.80;;
75894;SDS011;64573;50.328;15.014;2024-02-04T07:57:16;1.35;;;0.85;;
75894;SDS011;64573;50.328;15.014;2024-02-04T08:12:31;4.60;;;1.20;;
75894;SDS011;64573;50.328;15.014;2024-02-04T08:19:59;1.52;;;1.20;;
75894;SDS011;64573;50.328;15.014;2024-02-04T08:22:25;3.08;;;1.27;;
75894;SDS011;64573;50.328;15.014;2024-02-04T08:27:25;3.10;;;1.75;;
75894;SDS011;64573;50.328;15.014;2024-02-04T08:55:43;3.72;;;1.20;;
75894;SDS011;64573;50.328;15.014;2024-02-04T09:00:33;9.73;;;1.20;;
75894;SDS011;64573;50.328;15.014;2024-02-04T09:15:54;1.75;;;1.08;;
75894;SDS011;64573;50.328;15.014;2024-02-04T09:36:15;1.27;;;0.70;;
75894;SDS011;64573;50.328;15.014;2024-02-04T09:46:26;1.15;;;0.70;;
75894;SDS011;64573;50.328;15.014;2024-02-04T09:48:52;1.23;;;0.50;;
75894;SDS011;64573;50.328;15.014;2024-02-04T10:01:35;1.15;;;0.60;;
75894;SDS011;64573;50.328;15.014;2024-02-04T10:06:36;2.72;;;0.80;;
75894;SDS011;64573;50.328;15.014;2024-02-04T10:09:01;1.27;;;0.57;;
75894;SDS011;64573;50.328;15.014;2024-02-04T10:11:27;2.38;;;0.63;;
75894;SDS011;64573;50.328;15.014;2024-02-04T10:13:52;1.67;;;0.60;;
75894;SDS011;64573;50.328;15.014;2024-02-04T10:21:28;0.70;;;0.50;;
75894;SDS011;64573;50.328;15.014;2024-02-04T10:26:29;1.13;;;0.70;;
75894;SDS011;64573;50.328;15.014;2024-02-04T10:28:57;0.40;;;0.40;;
75894;SDS011;64573;50.328;15.014;2024-02-04T10:36:18;0.45;;;0.45;;
75894;SDS011;64573;50.328;15.014;2024-02-04T10:46:29;0.82;;;0.40;;
75894;SDS011;64573;50.328;15.014;2024-02-04T10:49:00;1.40;;;0.77;;
75894;SDS011;64573;50.328;15.014;2024-02-04T10:59:14;1.25;;;0.50;;
75894;SDS011;64573;50.328;15.014;2024-02-04T11:01:45;0.95;;;0.60;;
75894;SDS011;64573;50.328;15.014;2024-02-04T11:04:13;0.47;;;0.45;;
75894;SDS011;64573;50.328;15.014;2024-02-04T11:06:40;0.52;;;0.40;;
75894;SDS011;64573;50.328;15.014;2024-02-04T11:09:08;0.77;;;0.60;;
75894;SDS011;64573;50.328;15.014;2024-02-04T11:29:23;0.50;;;0.50;;
75894;SDS011;64573;50.328;15.014;2024-02-04T11:42:14;2.85;;;0.82;;
75894;SDS011;64573;50.328;15.014;2024-02-04T11:44:36;1.15;;;0.50;;
75894;SDS011;64573;50.328;15.014;2024-02-04T11:49:37;0.80;;;0.60;;
75894;SDS011;64573;50.328;15.014;2024-02-04T11:59:44;0.75;;;0.45;;
75894;SDS011;64573;50.328;15.014;2024-02-04T12:07:20;0.90;;;0.60;;
75894;SDS011;64573;50.328;15.014;2024-02-04T12:12:23;0.40;;;0.40;;
75894;SDS011;64573;50.328;15.014;2024-02-04T12:27:42;0.60;;;0.40;;
75894;SDS011;64573;50.328;15.014;2024-02-04T12:32:43;0.55;;;0.50;;
75894;SDS011;64573;50.328;15.014;2024-02-04T12:45:29;0.98;;;0.50;;
75894;SDS011;64573;50.328;15.014;2024-02-04T13:11:06;0.70;;;0.60;;
75894;SDS011;64573;50.328;15.014;2024-02-04T13:18:41;1.30;;;0.68;;
75894;SDS011;64573;50.328;15.014;2024-02-04T13:23:34;0.63;;;0.52;;
75894;SDS011;64573;50.328;15.014;2024-02-04T13:28:35;0.65;;;0.50;;
75894;SDS011;64573;50.328;15.014;2024-02-04T13:31:00;0.52;;;0.45;;
75894;SDS011;64573;50.328;15.014;2024-02-04T13:56:35;0.93;;;0.70;;
75894;SDS011;64573;50.328;15.014;2024-02-04T14:24:52;2.80;;;0.57;;
75894;SDS011;64573;50.328;15.014;2024-02-04T14:53:05;0.68;;;0.47;;
75894;SDS011;64573;50.328;15.014;2024-02-04T14:58:06;2.40;;;0.60;;
75894;SDS011;64573;50.328;15.014;2024-02-04T15:00:32;0.70;;;0.60;;
75894;SDS011;64573;50.328;15.014;2024-02-04T15:02:57;1.02;;;0.70;;
75894;SDS011;64573;50.328;15.014;2024-02-04T15:15:45;1.55;;;0.70;;
75894;SDS011;64573;50.328;15.014;2024-02-04T15:20:40;0.88;;;0.70;;
75894;SDS011;64573;50.328;15.014;2024-02-04T15:23:06;1.17;;;0.70;;
75894;SDS011;64573;50.328;15.014;2024-02-04T15:28:00;1.25;;;0.60;;
75894;SDS011;64573;50.328;15.014;2024-02-04T15:30:26;0.60;;;0.50;;
75894;SDS011;64573;50.328;15.014;2024-02-04T15:32:54;1.10;;;0.65;;
75894;SDS011;64573;50.328;15.014;2024-02-04T15:40:27;0.82;;;0.45;;
75894;SDS011;64573;50.328;15.014;2024-02-04T15:42:52;0.63;;;0.50;;
75894;SDS011;64573;50.328;15.014;2024-02-04T15:45:18;1.40;;;0.70;;
75894;SDS011;64573;50.328;15.014;2024-02-04T15:47:45;1.95;;;0.60;;
75894;SDS011;64573;50.328;15.014;2024-02-04T15:50:15;0.47;;;0.47;;
75894;SDS011;64573;50.328;15.014;2024-02-04T16:08:13;1.33;;;0.80;;
75894;SDS011;64573;50.328;15.014;2024-02-04T16:18:10;2.90;;;0.80;;
75894;SDS011;64573;50.328;15.014;2024-02-04T16:23:05;0.73;;;0.65;;
75894;SDS011;64573;50.328;15.014;2024-02-04T16:41:02;1.10;;;0.80;;
75894;SDS011;64573;50.328;15.014;2024-02-04T16:43:27;7.88;;;1.20;;
75894;SDS011;64573;50.328;15.014;2024-02-04T16:45:52;4.18;;;1.10;;
75894;SDS011;64573;50.328;15.014;2024-02-04T17:15:03;1.10;;;0.90;;
75894;SDS011;64573;50.328;15.014;2024-02-04T17:17:29;1.77;;;0.93;;
75894;SDS011;64573;50.328;15.014;2024-02-04T17:51:04;2.90;;;1.30;;
75894;SDS011;64573;50.328;15.014;2024-02-04T17:53:30;2.78;;;0.80;;
75894;SDS011;64573;50.328;15.014;2024-02-04T17:55:55;2.72;;;0.90;;
75894;SDS011;64573;50.328;15.014;2024-02-04T17:58:20;1.15;;;0.90;;
75894;SDS011;64573;50.328;15.014;2024-02-04T18:00:46;0.98;;;0.80;;
75894;SDS011;64573;50.328;15.014;2024-02-04T18:03:11;1.83;;;0.73;;
75894;SDS011;64573;50.328;15.014;2024-02-04T18:05:36;1.77;;;1.10;;
75894;SDS011;64573;50.328;15.014;2024-02-04T18:08:07;2.67;;;1.40;;
75894;SDS011;64573;50.328;15.014;2024-02-04T18:10:33;0.85;;;0.68;;
75894;SDS011;64573;50.328;15.014;2024-02-04T18:13:00;3.20;;;1.10;;
75894;SDS011;64573;50.328;15.014;2024-02-04T18:15:26;1.60;;;0.82;;
75894;SDS011;64573;50.328;15.014;2024-02-04T18:17:52;2.35;;;0.90;;
75894;SDS011;64573;50.328;15.014;2024-02-04T18:20:18;3.80;;;0.80;;
75894;SDS011;64573;50.328;15.014;2024-02-04T18:22:44;1.00;;;0.70;;
75894;SDS011;64573;50.328;15.014;2024-02-04T18:25:10;1.42;;;0.90;;
75894;SDS011;64573;50.328;15.014;2024-02-04T18:27:37;1.60;;;0.70;;
75894;SDS011;64573;50.328;15.014;2024-02-04T18:30:06;1.63;;;0.70;;
75894;SDS011;64573;50.328;15.014;2024-02-04T18:32:32;0.68;;;0.60;;
75894;SDS011;64573;50.328;15.014;2024-02-04T18:34:58;3.28;;;0.80;;
75894;SDS011;64573;50.328;15.014;2024-02-04T18:37:23;1.20;;;0.75;;
75894;SDS011;64573;50.328;15.014;2024-02-04T18:39:49;0.80;;;0.70;;
75894;SDS011;64573;50.328;15.014;2024-02-04T18:42:14;2.55;;;1.10;;
75894;SDS011;64573;50.328;15.014;2024-02-04T18:44:40;0.75;;;0.70;;
75894;SDS011;64573;50.328;15.014;2024-02-04T18:47:05;1.83;;;0.90;;
75894;SDS011;64573;50.328;15.014;2024-02-04T18:49:31;3.13;;;1.30;;
75894;SDS011;64573;50.328;15.014;2024-02-04T18:51:59;1.23;;;0.95;;
75894;SDS011;64573;50.328;15.014;2024-02-04T18:54:24;1.88;;;1.00;;
75894;SDS011;64573;50.328;15.014;2024-02-04T18:56:50;1.75;;;1.27;;
75894;SDS011;64573;50.328;15.014;2024-02-04T18:59:15;1.95;;;1.20;;
75894;SDS011;64573;50.328;15.014;2024-02-04T19:01:41;2.22;;;1.30;;
75894;SDS011;64573;50.328;15.014;2024-02-04T19:04:08;2.30;;;1.30;;
75894;SDS011;64573;50.328;15.014;2024-02-04T19:06:34;3.78;;;1.30;;
75894;SDS011;64573;50.328;15.014;2024-02-04T19:09:00;1.60;;;1.17;;
75894;SDS011;64573;50.328;15.014;2024-02-04T19:11:32;2.63;;;1.33;;
75894;SDS011;64573;50.328;15.014;2024-02-04T19:14:04;3.20;;;1.50;;
75894;SDS011;64573;50.328;15.014;2024-02-04T19:16:29;5.53;;;1.70;;
75894;SDS011;64573;50.328;15.014;2024-02-04T19:18:54;6.35;;;1.52;;
75894;SDS011;64573;50.328;15.014;2024-02-04T19:21:20;3.50;;;1.58;;
75894;SDS011;64573;50.328;15.014;2024-02-04T19:23:45;2.97;;;1.50;;
75894;SDS011;64573;50.328;15.014;2024-02-04T19:26:11;2.83;;;1.83;;
75894;SDS011;64573;50.328;15.014;2024-02-04T19:28:38;5.88;;;2.10;;
75894;SDS011;64573;50.328;15.014;2024-02-04T19:31:03;2.08;;;1.55;;
75894;SDS011;64573;50.328;15.014;2024-02-04T19:33:29;3.42;;;1.70;;
75894;SDS011;64573;50.328;15.014;2024-02-04T19:35:54;3.55;;;2.00;;
75894;SDS011;64573;50.328;15.014;2024-02-04T19:38:19;4.10;;;2.20;;
75894;SDS011;64573;50.328;15.014;2024-02-04T19:40:45;5.28;;;2.30;;
75894;SDS011;64573;50.328;15.014;2024-02-04T19:43:10;3.60;;;2.50;;
75894;SDS011;64573;50.328;15.014;2024-02-04T19:45:36;5.25;;;2.40;;
75894;SDS011;64573;50.328;15.014;2024-02-04T19:48:01;5.45;;;2.13;;
75894;SDS011;64573;50.328;15.014;2024-02-04T19:50:27;3.40;;;2.00;;
75894;SDS011;64573;50.328;15.014;2024-02-04T19:52:52;2.63;;;1.95;;
75894;SDS011;64573;50.328;15.014;2024-02-04T19:55:17;2.78;;;1.77;;
75894;SDS011;64573;50.328;15.014;2024-02-04T19:57:46;5.32;;;2.10;;
75894;SDS011;64573;50.328;15.014;2024-02-04T20:00:15;2.55;;;1.55;;
75894;SDS011;64573;50.328;15.014;2024-02-04T20:02:41;4.35;;;2.22;;
75894;SDS011;64573;50.328;15.014;2024-02-04T20:05:08;6.57;;;2.45;;
75894;SDS011;64573;50.328;15.014;2024-02-04T20:07:36;4.25;;;2.55;;
75894;SDS011;64573;50.328;15.014;2024-02-04T20:10:03;2.80;;;2.20;;
75894;SDS011;64573;50.328;15.014;2024-02-04T20:12:30;4.15;;;2.05;;
75894;SDS011;64573;50.328;15.014;2024-02-04T20:14:59;4.95;;;2.90;;
75894;SDS011;64573;50.328;15.014;2024-02-04T20:17:28;5.32;;;3.17;;
75894;SDS011;64573;50.328;15.014;2024-02-04T20:19:54;4.88;;;3.30;;
75894;SDS011;64573;50.328;15.014;2024-02-04T20:22:22;7.90;;;4.15;;
75894;SDS011;64573;50.328;15.014;2024-02-04T20:24:51;11.43;;;4.88;;
75894;SDS011;64573;50.328;15.014;2024-02-04T20:27:22;9.65;;;5.07;;
75894;SDS011;64573;50.328;15.014;2024-02-04T20:29:57;9.65;;;4.88;;
75894;SDS011;64573;50.328;15.014;2024-02-04T20:32:25;7.90;;;4.40;;
75894;SDS011;64573;50.328;15.014;2024-02-04T20:34:51;8.85;;;4.47;;
75894;SDS011;64573;50.328;15.014;2024-02-04T20:37:16;7.55;;;4.05;;
75894;SDS011;64573;50.328;15.014;2024-02-04T20:39:45;9.60;;;5.25;;
75894;SDS011;64573;50.328;15.014;2024-02-04T20:42:11;8.40;;;4.95;;
75894;SDS011;64573;50.328;15.014;2024-02-04T20:44:39;12.50;;;5.40;;
75894;SDS011;64573;50.328;15.014;2024-02-04T20:47:07;13.25;;;6.13;;
75894;SDS011;64573;50.328;15.014;2024-02-04T20:49:33;14.63;;;6.63;;
75894;SDS011;64573;50.328;15.014;2024-02-04T20:51:59;15.65;;;6.93;;
75894;SDS011;64573;50.328;15.014;2024-02-04T20:54:24;17.90;;;8.50;;
75894;SDS011;64573;50.328;15.014;2024-02-04T20:56:50;15.43;;;7.97;;
75894;SDS011;64573;50.328;15.014;2024-02-04T20:59:16;18.63;;;9.20;;
75894;SDS011;64573;50.328;15.014;2024-02-04T21:01:46;20.35;;;8.32;;
75894;SDS011;64573;50.328;15.014;2024-02-04T21:04:12;18.73;;;8.75;;
75894;SDS011;64573;50.328;15.014;2024-02-04T21:06:38;14.13;;;7.05;;
75894;SDS011;64573;50.328;15.014;2024-02-04T21:09:04;8.00;;;3.90;;
75894;SDS011;64573;50.328;15.014;2024-02-04T21:11:29;5.97;;;3.70;;
75894;SDS011;64573;50.328;15.014;2024-02-04T21:13:55;7.40;;;4.43;;
75894;SDS011;64573;50.328;15.014;2024-02-04T21:16:22;8.65;;;4.25;;
75894;SDS011;64573;50.328;15.014;2024-02-04T21:18:48;8.25;;;3.30;;
75894;SDS011;64573;50.328;15.014;2024-02-04T21:21:13;4.60;;;3.10;;
75894;SDS011;64573;50.328;15.014;2024-02-04T21:23:39;5.40;;;3.15;;
75894;SDS011;64573;50.328;15.014;2024-02-04T21:26:07;5.40;;;3.13;;
75894;SDS011;64573;50.328;15.014;2024-02-04T21:28:33;7.90;;;3.42;;
75894;SDS011;64573;50.328;15.014;2024-02-04T21:30:58;5.85;;;3.17;;
75894;SDS011;64573;50.328;15.014;2024-02-04T21:33:24;7.47;;;4.00;;
75894;SDS011;64573;50.328;15.014;2024-02-04T21:35:51;8.23;;;4.57;;
75894;SDS011;64573;50.328;15.014;2024-02-04T21:38:18;9.20;;;5.35;;
75894;SDS011;64573;50.328;15.014;2024-02-04T21:40:44;8.75;;;5.30;;
75894;SDS011;64573;50.328;15.014;2024-02-04T21:43:10;10.10;;;5.82;;
75894;SDS011;64573;50.328;15.014;2024-02-04T21:45:36;9.45;;;5.65;;
75894;SDS011;64573;50.328;15.014;2024-02-04T21:48:03;11.32;;;5.85;;
75894;SDS011;64573;50.328;15.014;2024-02-04T21:50:32;8.10;;;5.25;;
75894;SDS011;64573;50.328;15.014;2024-02-04T21:53:00;10.20;;;5.65;;
75894;SDS011;64573;50.328;15.014;2024-02-04T21:55:30;13.02;;;6.15;;
75894;SDS011;64573;50.328;15.014;2024-02-04T21:57:58;9.93;;;5.50;;
75894;SDS011;64573;50.328;15.014;2024-02-04T22:00:24;14.70;;;6.07;;
75894;SDS011;64573;50.328;15.014;2024-02-04T22:02:50;9.95;;;6.05;;
75894;SDS011;64573;50.328;15.014;2024-02-04T22:05:17;44.17;;;7.70;;
75894;SDS011;64573;50.328;15.014;2024-02-04T22:07:43;19.85;;;5.95;;
75894;SDS011;64573;50.328;15.014;2024-02-04T22:10:09;12.60;;;5.93;;
75894;SDS011;64573;50.328;15.014;2024-02-04T22:12:34;10.95;;;6.18;;
75894;SDS011;64573;50.328;15.014;2024-02-04T22:15:00;32.20;;;7.05;;
75894;SDS011;64573;50.328;15.014;2024-02-04T22:17:27;22.60;;;5.35;;
75894;SDS011;64573;50.328;15.014;2024-02-04T22:19:54;11.35;;;5.63;;
75894;SDS011;64573;50.328;15.014;2024-02-04T22:22:20;13.75;;;5.90;;
75894;SDS011;64573;50.328;15.014;2024-02-04T22:24:45;17.60;;;5.57;;
75894;SDS011;64573;50.328;15.014;2024-02-04T22:27:11;28.98;;;6.38;;
75894;SDS011;64573;50.328;15.014;2024-02-04T22:29:36;7.78;;;4.72;;
75894;SDS011;64573;50.328;15.014;2024-02-04T22:32:02;10.07;;;5.53;;
75894;SDS011;64573;50.328;15.014;2024-02-04T22:34:27;10.45;;;4.40;;
75894;SDS011;64573;50.328;15.014;2024-02-04T22:36:53;9.18;;;5.15;;
75894;SDS011;64573;50.328;15.014;2024-02-04T22:39:18;10.88;;;5.13;;
75894;SDS011;64573;50.328;15.014;2024-02-04T22:41:44;8.15;;;4.82;;
75894;SDS011;64573;50.328;15.014;2024-02-04T22:44:10;8.75;;;4.65;;
75894;SDS011;64573;50.328;15.014;2024-02-04T22:46:35;9.20;;;5.38;;
75894;SDS011;64573;50.328;15.014;2024-02-04T22:49:04;8.20;;;5.18;;
75894;SDS011;64573;50.328;15.014;2024-02-04T22:51:30;7.60;;;4.13;;
75894;SDS011;64573;50.328;15.014;2024-02-04T22:53:56;7.60;;;4.65;;
75894;SDS011;64573;50.328;15.014;2024-02-04T22:56:21;6.85;;;3.90;;
75894;SDS011;64573;50.328;15.014;2024-02-04T22:58:49;5.78;;;2.90;;
75894;SDS011;64573;50.328;15.014;2024-02-04T23:01:15;3.72;;;1.95;;
75894;SDS011;64573;50.328;15.014;2024-02-04T23:03:40;1.33;;;1.05;;
75894;SDS011;64573;50.328;15.014;2024-02-04T23:06:06;0.80;;;0.75;;
75894;SDS011;64573;50.328;15.014;2024-02-04T23:08:31;1.23;;;0.55;;
75894;SDS011;64573;50.328;15.014;2024-02-04T23:10:57;0.30;;;0.30;;
75894;SDS011;64573;50.328;15.014;2024-02-04T23:13:22;1.48;;;0.63;;
75894;SDS011;64573;50.328;15.014;2024-02-04T23:15:47;2.47;;;0.50;;
75894;SDS011;64573;50.328;15.014;2024-02-04T23:18:13;1.52;;;0.57;;
75894;SDS011;64573;50.328;15.014;2024-02-04T23:20:38;0.47;;;0.40;;
75894;SDS011;64573;50.328;15.014;2024-02-04T23:23:04;3.20;;;0.47;;
75894;SDS011;64573;50.328;15.014;2024-02-04T23:25:29;0.40;;;0.40;;
75894;SDS011;64573;50.328;15.014;2024-02-04T23:27:55;0.25;;;0.25;;
75894;SDS011;64573;50.328;15.014;2024-02-04T23:30:20;1.00;;;0.52;;
75894;SDS011;64573;50.328;15.014;2024-02-04T23:32:45;0.70;;;0.40;;
75894;SDS011;64573;50.328;15.014;2024-02-04T23:35:11;0.95;;;0.38;;
75894;SDS011;64573;50.328;15.014;2024-02-04T23:37:36;1.85;;;0.43;;
75894;SDS011;64573;50.328;15.014;2024-02-04T23:40:02;0.75;;;0.40;;
75894;SDS011;64573;50.328;15.014;2024-02-04T23:42:28;1.80;;;0.38;;
75894;SDS011;64573;50.328;15.014;2024-02-04T23:44:54;0.30;;;0.30;;
75894;SDS011;64573;50.328;15.014;2024-02-04T23:47:19;0.98;;;0.60;;
75894;SDS011;64573;50.328;15.014;2024-02-04T23:49:45;0.35;;;0.35;;
75894;SDS011;64573;50.328;15.014;2024-02-04T23:52:11;0.40;;;0.40;;
75894;SDS011;64573;50.328;15.014;2024-02-04T23:54:37;0.47;;;0.40;;
75894;SDS011;64573;50.328;15.014;2024-02-04T23:57:02;0.73;;;0.45;;
75894;SDS011;64573;50.328;15.014;2024-02-04T23:59:28;0.35;;;0.35;;
